sensor_id;sensor_type;location;lat;lon;timestamp;P1;durP1;ratioP1;P2;durP2;ratioP2
20713;SDS011;10518;50.742;4.226;2022-11-20T00:00:47;12.33;;;8.27;;
20713;SDS011;10518;50.742;4.226;2022-11-20T00:03:13;17.67;;;8.20;;
20713;SDS011;10518;50.742;4.226;2022-11-20T00:05:38;18.97;;;8.93;;
20713;SDS011;10518;50.742;4.226;2022-11-20T00:08:04;20.10;;;10.67;;
20713;SDS011;10518;50.742;4.226;2022-11-20T00:10:30;17.27;;;8.07;;
20713;SDS011;10518;50.742;4.226;2022-11-20T00:12:55;17.07;;;6.67;;
20713;SDS011;10518;50.742;4.226;2022-11-20T00:15:22;19.60;;;7.97;;
20713;SDS011;10518;50.742;4.226;2022-11-20T00:17:48;12.50;;;6.27;;
20713;SDS011;10518;50.742;4.226;2022-11-20T00:20:14;22.37;;;9.33;;
20713;SDS011;10518;50.742;4.226;2022-11-20T00:22:39;16.73;;;7.23;;
20713;SDS011;10518;50.742;4.226;2022-11-20T00:25:05;25.43;;;9.70;;
20713;SDS011;10518;50.742;4.226;2022-11-20T00:27:31;15.90;;;7.77;;
20713;SDS011;10518;50.742;4.226;2022-11-20T00:29:56;15.33;;;6.97;;
20713;SDS011;10518;50.742;4.226;2022-11-20T00:32:22;15.77;;;7.77;;
20713;SDS011;10518;50.742;4.226;2022-11-20T00:34:47;22.90;;;7.63;;
20713;SDS011;10518;50.742;4.226;2022-11-20T00:37:13;17.37;;;6.97;;
20713;SDS011;10518;50.742;4.226;2022-11-20T00:39:38;18.20;;;8.77;;
20713;SDS011;10518;50.742;4.226;2022-11-20T00:42:04;17.13;;;7.17;;
20713;SDS011;10518;50.742;4.226;2022-11-20T00:44:29;11.23;;;7.53;;
20713;SDS011;10518;50.742;4.226;2022-11-20T00:46:55;21.80;;;8.97;;
20713;SDS011;10518;50.742;4.226;2022-11-20T00:49:20;18.80;;;7.47;;
20713;SDS011;10518;50.742;4.226;2022-11-20T00:51:46;13.73;;;7.50;;
20713;SDS011;10518;50.742;4.226;2022-11-20T00:54:12;18.20;;;7.77;;
20713;SDS011;10518;50.742;4.226;2022-11-20T00:56:37;15.10;;;8.30;;
20713;SDS011;10518;50.742;4.226;2022-11-20T00:59:03;11.53;;;5.70;;
20713;SDS011;10518;50.742;4.226;2022-11-20T01:01:28;20.10;;;7.27;;
20713;SDS011;10518;50.742;4.226;2022-11-20T01:03:55;20.87;;;7.30;;
20713;SDS011;10518;50.742;4.226;2022-11-20T01:06:23;20.50;;;6.47;;
20713;SDS011;10518;50.742;4.226;2022-11-20T01:08:52;15.20;;;7.17;;
20713;SDS011;10518;50.742;4.226;2022-11-20T01:11:24;20.87;;;8.53;;
20713;SDS011;10518;50.742;4.226;2022-11-20T01:13:52;21.67;;;9.37;;
20713;SDS011;10518;50.742;4.226;2022-11-20T01:16:19;15.77;;;8.53;;
20713;SDS011;10518;50.742;4.226;2022-11-20T01:18:47;15.17;;;6.20;;
20713;SDS011;10518;50.742;4.226;2022-11-20T01:21:16;14.73;;;6.93;;
20713;SDS011;10518;50.742;4.226;2022-11-20T01:23:47;13.93;;;7.50;;
20713;SDS011;10518;50.742;4.226;2022-11-20T01:26:18;14.90;;;7.10;;
20713;SDS011;10518;50.742;4.226;2022-11-20T01:28:45;14.50;;;7.30;;
20713;SDS011;10518;50.742;4.226;2022-11-20T01:31:12;21.53;;;9.93;;
20713;SDS011;10518;50.742;4.226;2022-11-20T01:33:40;16.47;;;9.40;;
20713;SDS011;10518;50.742;4.226;2022-11-20T01:36:07;16.53;;;7.80;;
20713;SDS011;10518;50.742;4.226;2022-11-20T01:38:33;14.13;;;6.40;;
20713;SDS011;10518;50.742;4.226;2022-11-20T01:40:58;13.00;;;6.20;;
20713;SDS011;10518;50.742;4.226;2022-11-20T01:43:24;18.23;;;7.87;;
20713;SDS011;10518;50.742;4.226;2022-11-20T01:48:26;14.57;;;6.83;;
20713;SDS011;10518;50.742;4.226;2022-11-20T01:51:24;18.33;;;6.53;;
20713;SDS011;10518;50.742;4.226;2022-11-20T01:53:54;18.27;;;7.37;;
20713;SDS011;10518;50.742;4.226;2022-11-20T01:56:22;18.80;;;8.67;;
20713;SDS011;10518;50.742;4.226;2022-11-20T01:58:50;12.67;;;6.97;;
20713;SDS011;10518;50.742;4.226;2022-11-20T02:01:21;21.97;;;8.70;;
20713;SDS011;10518;50.742;4.226;2022-11-20T02:03:47;23.40;;;8.90;;
20713;SDS011;10518;50.742;4.226;2022-11-20T02:06:23;15.80;;;8.63;;
20713;SDS011;10518;50.742;4.226;2022-11-20T02:08:51;18.00;;;8.30;;
20713;SDS011;10518;50.742;4.226;2022-11-20T02:11:17;15.63;;;9.27;;
20713;SDS011;10518;50.742;4.226;2022-11-20T02:13:43;19.20;;;8.23;;
20713;SDS011;10518;50.742;4.226;2022-11-20T02:18:48;16.33;;;6.73;;
20713;SDS011;10518;50.742;4.226;2022-11-20T02:24:00;10.73;;;6.77;;
20713;SDS011;10518;50.742;4.226;2022-11-20T02:26:30;12.77;;;7.23;;
20713;SDS011;10518;50.742;4.226;2022-11-20T02:28:58;16.23;;;6.40;;
20713;SDS011;10518;50.742;4.226;2022-11-20T02:31:25;14.80;;;6.77;;
20713;SDS011;10518;50.742;4.226;2022-11-20T02:33:55;12.77;;;5.73;;
20713;SDS011;10518;50.742;4.226;2022-11-20T02:36:24;14.43;;;6.27;;
20713;SDS011;10518;50.742;4.226;2022-11-20T02:38:52;11.57;;;5.03;;
20713;SDS011;10518;50.742;4.226;2022-11-20T02:41:18;23.13;;;6.40;;
20713;SDS011;10518;50.742;4.226;2022-11-20T02:43:44;13.13;;;6.03;;
20713;SDS011;10518;50.742;4.226;2022-11-20T02:46:09;9.10;;;4.73;;
20713;SDS011;10518;50.742;4.226;2022-11-20T02:48:35;12.43;;;5.10;;
20713;SDS011;10518;50.742;4.226;2022-11-20T02:51:00;12.50;;;5.37;;
20713;SDS011;10518;50.742;4.226;2022-11-20T02:53:26;9.43;;;6.00;;
20713;SDS011;10518;50.742;4.226;2022-11-20T02:55:52;8.50;;;5.83;;
20713;SDS011;10518;50.742;4.226;2022-11-20T02:58:17;8.17;;;5.23;;
20713;SDS011;10518;50.742;4.226;2022-11-20T03:00:43;13.30;;;4.43;;
20713;SDS011;10518;50.742;4.226;2022-11-20T03:03:09;9.77;;;4.70;;
20713;SDS011;10518;50.742;4.226;2022-11-20T03:05:34;10.53;;;4.07;;
20713;SDS011;10518;50.742;4.226;2022-11-20T03:08:00;10.07;;;4.67;;
20713;SDS011;10518;50.742;4.226;2022-11-20T03:10:25;11.97;;;4.97;;
20713;SDS011;10518;50.742;4.226;2022-11-20T03:12:54;7.00;;;3.17;;
20713;SDS011;10518;50.742;4.226;2022-11-20T03:15:21;13.47;;;6.73;;
20713;SDS011;10518;50.742;4.226;2022-11-20T03:17:52;11.23;;;5.80;;
20713;SDS011;10518;50.742;4.226;2022-11-20T03:20:19;11.37;;;5.20;;
20713;SDS011;10518;50.742;4.226;2022-11-20T03:22:45;12.43;;;5.83;;
20713;SDS011;10518;50.742;4.226;2022-11-20T03:25:10;14.37;;;6.07;;
20713;SDS011;10518;50.742;4.226;2022-11-20T03:27:36;16.77;;;5.20;;
20713;SDS011;10518;50.742;4.226;2022-11-20T03:30:02;17.47;;;4.87;;
20713;SDS011;10518;50.742;4.226;2022-11-20T03:32:28;9.30;;;5.63;;
20713;SDS011;10518;50.742;4.226;2022-11-20T03:34:53;12.80;;;6.03;;
20713;SDS011;10518;50.742;4.226;2022-11-20T03:37:19;16.17;;;5.97;;
20713;SDS011;10518;50.742;4.226;2022-11-20T03:39:45;13.80;;;6.90;;
20713;SDS011;10518;50.742;4.226;2022-11-20T03:42:10;7.03;;;4.50;;
20713;SDS011;10518;50.742;4.226;2022-11-20T03:44:56;10.80;;;5.97;;
20713;SDS011;10518;50.742;4.226;2022-11-20T03:47:21;11.90;;;5.17;;
20713;SDS011;10518;50.742;4.226;2022-11-20T03:49:47;14.50;;;6.17;;
20713;SDS011;10518;50.742;4.226;2022-11-20T03:52:12;12.17;;;5.23;;
20713;SDS011;10518;50.742;4.226;2022-11-20T03:54:38;13.30;;;8.33;;
20713;SDS011;10518;50.742;4.226;2022-11-20T03:57:04;16.57;;;6.83;;
20713;SDS011;10518;50.742;4.226;2022-11-20T03:59:29;13.03;;;7.20;;
20713;SDS011;10518;50.742;4.226;2022-11-20T04:01:55;16.23;;;6.63;;
20713;SDS011;10518;50.742;4.226;2022-11-20T04:04:20;11.00;;;5.00;;
20713;SDS011;10518;50.742;4.226;2022-11-20T04:06:46;7.40;;;4.73;;
20713;SDS011;10518;50.742;4.226;2022-11-20T04:09:12;15.93;;;5.70;;
20713;SDS011;10518;50.742;4.226;2022-11-20T04:11:39;14.63;;;5.03;;
20713;SDS011;10518;50.742;4.226;2022-11-20T04:14:06;17.93;;;5.53;;
20713;SDS011;10518;50.742;4.226;2022-11-20T04:16:37;19.23;;;5.40;;
20713;SDS011;10518;50.742;4.226;2022-11-20T04:19:04;13.23;;;5.73;;
20713;SDS011;10518;50.742;4.226;2022-11-20T04:21:31;12.23;;;5.60;;
20713;SDS011;10518;50.742;4.226;2022-11-20T04:23:56;11.33;;;6.63;;
20713;SDS011;10518;50.742;4.226;2022-11-20T04:26:23;13.67;;;6.10;;
20713;SDS011;10518;50.742;4.226;2022-11-20T04:28:50;12.30;;;6.73;;
20713;SDS011;10518;50.742;4.226;2022-11-20T04:31:18;10.73;;;6.70;;
20713;SDS011;10518;50.742;4.226;2022-11-20T04:33:45;25.47;;;6.77;;
20713;SDS011;10518;50.742;4.226;2022-11-20T04:36:15;9.53;;;6.07;;
20713;SDS011;10518;50.742;4.226;2022-11-20T04:38:41;13.80;;;5.63;;
20713;SDS011;10518;50.742;4.226;2022-11-20T04:41:09;17.47;;;6.80;;
20713;SDS011;10518;50.742;4.226;2022-11-20T04:43:41;19.53;;;6.63;;
20713;SDS011;10518;50.742;4.226;2022-11-20T04:46:06;14.93;;;5.20;;
20713;SDS011;10518;50.742;4.226;2022-11-20T04:48:32;18.63;;;6.60;;
20713;SDS011;10518;50.742;4.226;2022-11-20T04:51:02;11.63;;;4.60;;
20713;SDS011;10518;50.742;4.226;2022-11-20T04:53:28;9.13;;;4.73;;
20713;SDS011;10518;50.742;4.226;2022-11-20T04:55:58;22.03;;;6.13;;
20713;SDS011;10518;50.742;4.226;2022-11-20T04:58:29;25.47;;;9.40;;
20713;SDS011;10518;50.742;4.226;2022-11-20T05:01:07;25.10;;;7.53;;
20713;SDS011;10518;50.742;4.226;2022-11-20T05:03:38;29.57;;;9.13;;
20713;SDS011;10518;50.742;4.226;2022-11-20T05:06:05;13.20;;;5.67;;
20713;SDS011;10518;50.742;4.226;2022-11-20T05:08:32;13.30;;;5.50;;
20713;SDS011;10518;50.742;4.226;2022-11-20T05:11:05;17.67;;;5.77;;
20713;SDS011;10518;50.742;4.226;2022-11-20T05:13:33;12.03;;;5.07;;
20713;SDS011;10518;50.742;4.226;2022-11-20T05:16:09;24.20;;;8.60;;
20713;SDS011;10518;50.742;4.226;2022-11-20T05:18:37;18.47;;;7.37;;
20713;SDS011;10518;50.742;4.226;2022-11-20T05:21:03;24.90;;;7.10;;
20713;SDS011;10518;50.742;4.226;2022-11-20T05:23:30;15.33;;;7.17;;
20713;SDS011;10518;50.742;4.226;2022-11-20T05:25:57;9.70;;;6.17;;
20713;SDS011;10518;50.742;4.226;2022-11-20T05:28:23;10.50;;;5.30;;
20713;SDS011;10518;50.742;4.226;2022-11-20T05:30:50;19.47;;;6.50;;
20713;SDS011;10518;50.742;4.226;2022-11-20T05:33:16;13.90;;;5.93;;
20713;SDS011;10518;50.742;4.226;2022-11-20T05:35:42;10.07;;;4.93;;
20713;SDS011;10518;50.742;4.226;2022-11-20T05:38:08;18.73;;;7.00;;
20713;SDS011;10518;50.742;4.226;2022-11-20T05:40:34;17.20;;;6.23;;
20713;SDS011;10518;50.742;4.226;2022-11-20T05:43:00;13.30;;;7.13;;
20713;SDS011;10518;50.742;4.226;2022-11-20T05:45:26;19.27;;;4.93;;
20713;SDS011;10518;50.742;4.226;2022-11-20T05:47:52;13.03;;;5.97;;
20713;SDS011;10518;50.742;4.226;2022-11-20T05:50:17;15.63;;;6.67;;
20713;SDS011;10518;50.742;4.226;2022-11-20T05:52:43;13.10;;;5.43;;
20713;SDS011;10518;50.742;4.226;2022-11-20T05:55:08;9.83;;;4.63;;
20713;SDS011;10518;50.742;4.226;2022-11-20T05:57:34;15.50;;;6.63;;
20713;SDS011;10518;50.742;4.226;2022-11-20T06:00:00;19.00;;;6.60;;
20713;SDS011;10518;50.742;4.226;2022-11-20T06:02:26;12.23;;;6.37;;
20713;SDS011;10518;50.742;4.226;2022-11-20T06:04:51;13.33;;;6.50;;
20713;SDS011;10518;50.742;4.226;2022-11-20T06:07:17;11.07;;;5.83;;
20713;SDS011;10518;50.742;4.226;2022-11-20T06:09:42;21.27;;;5.90;;
20713;SDS011;10518;50.742;4.226;2022-11-20T06:12:08;8.70;;;5.83;;
20713;SDS011;10518;50.742;4.226;2022-11-20T06:14:33;9.40;;;5.23;;
20713;SDS011;10518;50.742;4.226;2022-11-20T06:16:59;9.30;;;4.47;;
20713;SDS011;10518;50.742;4.226;2022-11-20T06:19:25;13.20;;;4.33;;
20713;SDS011;10518;50.742;4.226;2022-11-20T06:21:51;12.57;;;4.53;;
20713;SDS011;10518;50.742;4.226;2022-11-20T06:24:16;6.20;;;3.67;;
20713;SDS011;10518;50.742;4.226;2022-11-20T06:26:43;13.87;;;4.33;;
20713;SDS011;10518;50.742;4.226;2022-11-20T06:29:08;7.93;;;4.63;;
20713;SDS011;10518;50.742;4.226;2022-11-20T06:31:34;12.13;;;4.83;;
20713;SDS011;10518;50.742;4.226;2022-11-20T06:34:02;9.47;;;4.77;;
20713;SDS011;10518;50.742;4.226;2022-11-20T06:36:29;10.07;;;5.13;;
20713;SDS011;10518;50.742;4.226;2022-11-20T06:38:54;11.57;;;5.77;;
20713;SDS011;10518;50.742;4.226;2022-11-20T06:41:20;8.97;;;5.27;;
20713;SDS011;10518;50.742;4.226;2022-11-20T06:43:47;13.67;;;4.70;;
20713;SDS011;10518;50.742;4.226;2022-11-20T06:46:14;10.23;;;4.83;;
20713;SDS011;10518;50.742;4.226;2022-11-20T06:48:42;8.03;;;3.20;;
20713;SDS011;10518;50.742;4.226;2022-11-20T06:51:08;10.60;;;5.23;;
20713;SDS011;10518;50.742;4.226;2022-11-20T06:53:34;11.67;;;4.83;;
20713;SDS011;10518;50.742;4.226;2022-11-20T06:56:00;11.40;;;5.87;;
20713;SDS011;10518;50.742;4.226;2022-11-20T06:58:26;14.43;;;5.43;;
20713;SDS011;10518;50.742;4.226;2022-11-20T07:00:53;9.33;;;5.90;;
20713;SDS011;10518;50.742;4.226;2022-11-20T07:03:22;11.67;;;5.10;;
20713;SDS011;10518;50.742;4.226;2022-11-20T07:05:47;13.70;;;5.13;;
20713;SDS011;10518;50.742;4.226;2022-11-20T07:08:13;9.83;;;4.53;;
20713;SDS011;10518;50.742;4.226;2022-11-20T07:10:39;11.50;;;4.57;;
20713;SDS011;10518;50.742;4.226;2022-11-20T07:13:04;8.10;;;4.03;;
20713;SDS011;10518;50.742;4.226;2022-11-20T07:15:32;7.93;;;4.47;;
20713;SDS011;10518;50.742;4.226;2022-11-20T07:18:00;9.93;;;5.70;;
20713;SDS011;10518;50.742;4.226;2022-11-20T07:20:26;14.07;;;5.17;;
20713;SDS011;10518;50.742;4.226;2022-11-20T07:22:54;12.57;;;5.00;;
20713;SDS011;10518;50.742;4.226;2022-11-20T07:25:20;7.47;;;4.10;;
20713;SDS011;10518;50.742;4.226;2022-11-20T07:27:47;11.93;;;4.30;;
20713;SDS011;10518;50.742;4.226;2022-11-20T07:30:13;13.57;;;5.60;;
20713;SDS011;10518;50.742;4.226;2022-11-20T07:32:39;6.90;;;5.03;;
20713;SDS011;10518;50.742;4.226;2022-11-20T07:35:04;9.63;;;4.87;;
20713;SDS011;10518;50.742;4.226;2022-11-20T07:37:30;11.20;;;4.07;;
20713;SDS011;10518;50.742;4.226;2022-11-20T07:39:59;6.60;;;4.83;;
20713;SDS011;10518;50.742;4.226;2022-11-20T07:42:24;15.90;;;4.60;;
20713;SDS011;10518;50.742;4.226;2022-11-20T07:44:50;11.47;;;4.13;;
20713;SDS011;10518;50.742;4.226;2022-11-20T07:47:16;13.37;;;4.60;;
20713;SDS011;10518;50.742;4.226;2022-11-20T07:49:41;11.03;;;4.87;;
20713;SDS011;10518;50.742;4.226;2022-11-20T07:52:07;13.07;;;4.63;;
20713;SDS011;10518;50.742;4.226;2022-11-20T07:54:33;7.00;;;3.53;;
20713;SDS011;10518;50.742;4.226;2022-11-20T07:56:58;4.87;;;3.10;;
20713;SDS011;10518;50.742;4.226;2022-11-20T07:59:24;14.07;;;5.33;;
20713;SDS011;10518;50.742;4.226;2022-11-20T08:01:49;11.30;;;5.43;;
20713;SDS011;10518;50.742;4.226;2022-11-20T08:04:15;14.20;;;5.57;;
20713;SDS011;10518;50.742;4.226;2022-11-20T08:06:41;10.60;;;5.47;;
20713;SDS011;10518;50.742;4.226;2022-11-20T08:09:06;10.80;;;4.77;;
20713;SDS011;10518;50.742;4.226;2022-11-20T08:11:32;9.83;;;4.30;;
20713;SDS011;10518;50.742;4.226;2022-11-20T08:14:16;10.40;;;4.90;;
20713;SDS011;10518;50.742;4.226;2022-11-20T08:16:43;13.90;;;4.90;;
20713;SDS011;10518;50.742;4.226;2022-11-20T08:19:10;14.93;;;5.10;;
20713;SDS011;10518;50.742;4.226;2022-11-20T08:21:37;7.70;;;4.53;;
20713;SDS011;10518;50.742;4.226;2022-11-20T08:24:03;15.17;;;5.50;;
20713;SDS011;10518;50.742;4.226;2022-11-20T08:26:29;15.60;;;5.53;;
20713;SDS011;10518;50.742;4.226;2022-11-20T08:28:55;11.50;;;4.97;;
20713;SDS011;10518;50.742;4.226;2022-11-20T08:31:25;12.23;;;5.50;;
20713;SDS011;10518;50.742;4.226;2022-11-20T08:33:52;11.40;;;5.63;;
20713;SDS011;10518;50.742;4.226;2022-11-20T08:36:18;16.43;;;5.10;;
20713;SDS011;10518;50.742;4.226;2022-11-20T08:38:48;11.33;;;3.87;;
20713;SDS011;10518;50.742;4.226;2022-11-20T08:41:14;12.70;;;5.80;;
20713;SDS011;10518;50.742;4.226;2022-11-20T08:43:50;13.93;;;5.70;;
20713;SDS011;10518;50.742;4.226;2022-11-20T08:46:17;11.17;;;4.47;;
20713;SDS011;10518;50.742;4.226;2022-11-20T08:48:43;11.77;;;6.67;;
20713;SDS011;10518;50.742;4.226;2022-11-20T08:51:09;9.53;;;4.50;;
20713;SDS011;10518;50.742;4.226;2022-11-20T08:53:35;11.20;;;5.07;;
20713;SDS011;10518;50.742;4.226;2022-11-20T08:56:01;12.90;;;5.73;;
20713;SDS011;10518;50.742;4.226;2022-11-20T08:58:27;6.97;;;4.97;;
20713;SDS011;10518;50.742;4.226;2022-11-20T09:00:52;10.50;;;4.80;;
20713;SDS011;10518;50.742;4.226;2022-11-20T09:03:18;10.13;;;4.73;;
20713;SDS011;10518;50.742;4.226;2022-11-20T09:05:44;12.10;;;4.80;;
20713;SDS011;10518;50.742;4.226;2022-11-20T09:08:09;8.90;;;5.03;;
20713;SDS011;10518;50.742;4.226;2022-11-20T09:10:35;10.53;;;4.63;;
20713;SDS011;10518;50.742;4.226;2022-11-20T09:13:01;12.60;;;5.80;;
20713;SDS011;10518;50.742;4.226;2022-11-20T09:15:27;13.13;;;4.67;;
20713;SDS011;10518;50.742;4.226;2022-11-20T09:20:19;15.33;;;3.60;;
20713;SDS011;10518;50.742;4.226;2022-11-20T09:22:45;6.63;;;3.63;;
20713;SDS011;10518;50.742;4.226;2022-11-20T09:25:10;8.13;;;3.33;;
20713;SDS011;10518;50.742;4.226;2022-11-20T09:27:36;8.17;;;3.17;;
20713;SDS011;10518;50.742;4.226;2022-11-20T09:30:02;5.37;;;2.67;;
20713;SDS011;10518;50.742;4.226;2022-11-20T09:32:28;3.50;;;2.37;;
20713;SDS011;10518;50.742;4.226;2022-11-20T09:34:53;4.70;;;2.60;;
20713;SDS011;10518;50.742;4.226;2022-11-20T09:37:19;6.10;;;3.37;;
20713;SDS011;10518;50.742;4.226;2022-11-20T09:39:44;4.87;;;2.70;;
20713;SDS011;10518;50.742;4.226;2022-11-20T09:45:22;6.10;;;2.10;;
20713;SDS011;10518;50.742;4.226;2022-11-20T09:55:33;2.73;;;1.73;;
20713;SDS011;10518;50.742;4.226;2022-11-20T09:58:00;4.43;;;2.43;;
20713;SDS011;10518;50.742;4.226;2022-11-20T10:00:31;9.80;;;2.20;;
20713;SDS011;10518;50.742;4.226;2022-11-20T10:05:45;3.47;;;2.03;;
20713;SDS011;10518;50.742;4.226;2022-11-20T10:08:29;8.53;;;2.27;;
20713;SDS011;10518;50.742;4.226;2022-11-20T10:11:05;7.47;;;2.47;;
20713;SDS011;10518;50.742;4.226;2022-11-20T10:13:42;4.90;;;2.33;;
20713;SDS011;10518;50.742;4.226;2022-11-20T10:24:57;2.67;;;1.70;;
20713;SDS011;10518;50.742;4.226;2022-11-20T10:30:26;4.47;;;2.10;;
20713;SDS011;10518;50.742;4.226;2022-11-20T10:32:54;3.33;;;2.37;;
20713;SDS011;10518;50.742;4.226;2022-11-20T10:35:45;3.77;;;2.27;;
20713;SDS011;10518;50.742;4.226;2022-11-20T10:40:49;4.07;;;2.23;;
20713;SDS011;10518;50.742;4.226;2022-11-20T10:43:39;3.97;;;1.90;;
20713;SDS011;10518;50.742;4.226;2022-11-20T10:46:08;4.80;;;1.83;;
20713;SDS011;10518;50.742;4.226;2022-11-20T10:48:42;5.70;;;2.53;;
20713;SDS011;10518;50.742;4.226;2022-11-20T10:56:43;8.23;;;2.37;;
20713;SDS011;10518;50.742;4.226;2022-11-20T10:59:32;5.17;;;1.90;;
20713;SDS011;10518;50.742;4.226;2022-11-20T11:04:48;2.37;;;1.77;;
20713;SDS011;10518;50.742;4.226;2022-11-20T11:09:52;3.83;;;1.93;;
20713;SDS011;10518;50.742;4.226;2022-11-20T11:12:19;1.70;;;1.33;;
20713;SDS011;10518;50.742;4.226;2022-11-20T11:14:50;1.63;;;1.33;;
20713;SDS011;10518;50.742;4.226;2022-11-20T11:22:28;1.63;;;1.30;;
20713;SDS011;10518;50.742;4.226;2022-11-20T11:24:55;1.33;;;1.23;;
20713;SDS011;10518;50.742;4.226;2022-11-20T11:27:20;1.97;;;1.43;;
20713;SDS011;10518;50.742;4.226;2022-11-20T11:29:46;2.97;;;1.47;;
20713;SDS011;10518;50.742;4.226;2022-11-20T11:32:17;1.30;;;1.20;;
20713;SDS011;10518;50.742;4.226;2022-11-20T11:34:44;4.37;;;2.13;;
20713;SDS011;10518;50.742;4.226;2022-11-20T11:37:15;1.50;;;1.40;;
20713;SDS011;10518;50.742;4.226;2022-11-20T11:39:44;0.80;;;0.80;;
20713;SDS011;10518;50.742;4.226;2022-11-20T11:42:13;0.77;;;0.77;;
20713;SDS011;10518;50.742;4.226;2022-11-20T11:44:46;1.77;;;1.40;;
20713;SDS011;10518;50.742;4.226;2022-11-20T11:47:32;2.47;;;1.30;;
20713;SDS011;10518;50.742;4.226;2022-11-20T11:53:19;1.83;;;1.10;;
20713;SDS011;10518;50.742;4.226;2022-11-20T11:55:31;1.10;;;1.00;;
20713;SDS011;10518;50.742;4.226;2022-11-20T11:58:02;0.80;;;0.80;;
20713;SDS011;10518;50.742;4.226;2022-11-20T12:00:36;1.57;;;1.07;;
20713;SDS011;10518;50.742;4.226;2022-11-20T12:05:59;1.00;;;0.80;;
20713;SDS011;10518;50.742;4.226;2022-11-20T12:11:30;1.83;;;1.73;;
20713;SDS011;10518;50.742;4.226;2022-11-20T12:14:33;1.43;;;0.97;;
20713;SDS011;10518;50.742;4.226;2022-11-20T12:17:05;2.13;;;1.40;;
20713;SDS011;10518;50.742;4.226;2022-11-20T12:19:35;1.57;;;1.10;;
20713;SDS011;10518;50.742;4.226;2022-11-20T12:43:21;2.00;;;1.80;;
20713;SDS011;10518;50.742;4.226;2022-11-20T12:54:52;10.87;;;1.30;;
20713;SDS011;10518;50.742;4.226;2022-11-20T13:00:30;2.13;;;1.40;;
20713;SDS011;10518;50.742;4.226;2022-11-20T13:03:06;1.90;;;1.67;;
20713;SDS011;10518;50.742;4.226;2022-11-20T13:05:55;2.63;;;1.57;;
20713;SDS011;10518;50.742;4.226;2022-11-20T13:08:26;4.53;;;1.50;;
20713;SDS011;10518;50.742;4.226;2022-11-20T13:16:36;1.50;;;1.40;;
20713;SDS011;10518;50.742;4.226;2022-11-20T13:19:03;1.83;;;1.60;;
20713;SDS011;10518;50.742;4.226;2022-11-20T13:21:37;2.03;;;1.77;;
20713;SDS011;10518;50.742;4.226;2022-11-20T13:24:18;2.57;;;1.90;;
20713;SDS011;10518;50.742;4.226;2022-11-20T13:26:48;1.50;;;1.40;;
20713;SDS011;10518;50.742;4.226;2022-11-20T13:29:33;1.33;;;1.20;;
20713;SDS011;10518;50.742;4.226;2022-11-20T13:32:06;1.00;;;1.00;;
20713;SDS011;10518;50.742;4.226;2022-11-20T13:34:54;1.90;;;1.50;;
20713;SDS011;10518;50.742;4.226;2022-11-20T13:37:34;8.00;;;1.40;;
20713;SDS011;10518;50.742;4.226;2022-11-20T13:42:38;4.83;;;1.37;;
20713;SDS011;10518;50.742;4.226;2022-11-20T13:45:23;1.80;;;1.70;;
20713;SDS011;10518;50.742;4.226;2022-11-20T13:47:51;1.67;;;1.57;;
20713;SDS011;10518;50.742;4.226;2022-11-20T13:50:18;1.53;;;1.43;;
20713;SDS011;10518;50.742;4.226;2022-11-20T14:00:55;3.77;;;1.90;;
20713;SDS011;10518;50.742;4.226;2022-11-20T14:03:42;1.47;;;1.47;;
20713;SDS011;10518;50.742;4.226;2022-11-20T14:06:13;1.87;;;1.70;;
20713;SDS011;10518;50.742;4.226;2022-11-20T14:08:46;1.83;;;1.67;;
20713;SDS011;10518;50.742;4.226;2022-11-20T14:14:19;1.53;;;1.43;;
20713;SDS011;10518;50.742;4.226;2022-11-20T14:16:44;1.07;;;1.07;;
20713;SDS011;10518;50.742;4.226;2022-11-20T14:21:42;1.93;;;1.60;;
20713;SDS011;10518;50.742;4.226;2022-11-20T14:24:10;1.80;;;1.70;;
20713;SDS011;10518;50.742;4.226;2022-11-20T14:26:38;1.60;;;1.50;;
20713;SDS011;10518;50.742;4.226;2022-11-20T14:29:12;2.80;;;1.27;;
20713;SDS011;10518;50.742;4.226;2022-11-20T14:31:53;1.50;;;1.00;;
20713;SDS011;10518;50.742;4.226;2022-11-20T14:34:39;1.80;;;1.50;;
20713;SDS011;10518;50.742;4.226;2022-11-20T14:37:10;2.10;;;1.13;;
20713;SDS011;10518;50.742;4.226;2022-11-20T14:39:40;8.87;;;1.57;;
20713;SDS011;10518;50.742;4.226;2022-11-20T14:42:17;1.53;;;1.43;;
20713;SDS011;10518;50.742;4.226;2022-11-20T14:44:48;1.03;;;1.03;;
20713;SDS011;10518;50.742;4.226;2022-11-20T14:47:17;1.30;;;1.27;;
20713;SDS011;10518;50.742;4.226;2022-11-20T14:49:47;5.97;;;1.03;;
20713;SDS011;10518;50.742;4.226;2022-11-20T14:52:18;1.10;;;1.00;;
20713;SDS011;10518;50.742;4.226;2022-11-20T14:54:46;0.77;;;0.77;;
20713;SDS011;10518;50.742;4.226;2022-11-20T14:59:47;4.07;;;1.40;;
20713;SDS011;10518;50.742;4.226;2022-11-20T15:02:12;1.20;;;1.10;;
20713;SDS011;10518;50.742;4.226;2022-11-20T15:04:47;1.30;;;1.20;;
20713;SDS011;10518;50.742;4.226;2022-11-20T15:07:24;0.90;;;0.90;;
20713;SDS011;10518;50.742;4.226;2022-11-20T15:12:37;1.07;;;1.00;;
20713;SDS011;10518;50.742;4.226;2022-11-20T15:15:05;1.40;;;1.30;;
20713;SDS011;10518;50.742;4.226;2022-11-20T15:17:35;0.87;;;0.87;;
20713;SDS011;10518;50.742;4.226;2022-11-20T15:20:02;1.10;;;1.00;;
20713;SDS011;10518;50.742;4.226;2022-11-20T15:22:31;2.50;;;1.00;;
20713;SDS011;10518;50.742;4.226;2022-11-20T15:24:57;1.63;;;1.20;;
20713;SDS011;10518;50.742;4.226;2022-11-20T15:27:22;0.70;;;0.70;;
20713;SDS011;10518;50.742;4.226;2022-11-20T15:29:48;1.33;;;1.20;;
20713;SDS011;10518;50.742;4.226;2022-11-20T15:32:13;0.90;;;0.90;;
20713;SDS011;10518;50.742;4.226;2022-11-20T15:34:39;1.03;;;0.90;;
20713;SDS011;10518;50.742;4.226;2022-11-20T15:37:04;1.97;;;1.57;;
20713;SDS011;10518;50.742;4.226;2022-11-20T15:39:30;2.73;;;1.67;;
20713;SDS011;10518;50.742;4.226;2022-11-20T15:41:55;1.20;;;1.10;;
20713;SDS011;10518;50.742;4.226;2022-11-20T15:44:21;1.37;;;1.10;;
20713;SDS011;10518;50.742;4.226;2022-11-20T15:46:47;1.50;;;1.40;;
20713;SDS011;10518;50.742;4.226;2022-11-20T15:49:13;2.70;;;1.50;;
20713;SDS011;10518;50.742;4.226;2022-11-20T15:51:44;1.43;;;1.30;;
20713;SDS011;10518;50.742;4.226;2022-11-20T15:54:12;1.23;;;1.13;;
20713;SDS011;10518;50.742;4.226;2022-11-20T15:56:39;9.10;;;1.80;;
20713;SDS011;10518;50.742;4.226;2022-11-20T15:59:05;2.90;;;1.57;;
20713;SDS011;10518;50.742;4.226;2022-11-20T16:01:30;2.13;;;2.03;;
20713;SDS011;10518;50.742;4.226;2022-11-20T16:03:56;2.33;;;1.33;;
20713;SDS011;10518;50.742;4.226;2022-11-20T16:06:22;7.40;;;1.97;;
20713;SDS011;10518;50.742;4.226;2022-11-20T16:08:47;1.17;;;1.13;;
20713;SDS011;10518;50.742;4.226;2022-11-20T16:11:14;1.20;;;1.20;;
20713;SDS011;10518;50.742;4.226;2022-11-20T16:13:40;5.77;;;1.70;;
20713;SDS011;10518;50.742;4.226;2022-11-20T16:18:53;1.63;;;1.03;;
20713;SDS011;10518;50.742;4.226;2022-11-20T16:21:19;1.33;;;1.20;;
20713;SDS011;10518;50.742;4.226;2022-11-20T16:23:45;9.67;;;1.67;;
20713;SDS011;10518;50.742;4.226;2022-11-20T16:26:12;2.70;;;1.37;;
20713;SDS011;10518;50.742;4.226;2022-11-20T16:28:39;1.97;;;1.57;;
20713;SDS011;10518;50.742;4.226;2022-11-20T16:31:09;1.33;;;1.20;;
20713;SDS011;10518;50.742;4.226;2022-11-20T16:33:39;2.40;;;1.07;;
20713;SDS011;10518;50.742;4.226;2022-11-20T16:36:09;1.07;;;0.90;;
20713;SDS011;10518;50.742;4.226;2022-11-20T16:38:36;4.80;;;1.73;;
20713;SDS011;10518;50.742;4.226;2022-11-20T16:41:02;3.80;;;1.83;;
20713;SDS011;10518;50.742;4.226;2022-11-20T16:43:28;1.10;;;1.10;;
20713;SDS011;10518;50.742;4.226;2022-11-20T16:45:54;10.97;;;1.43;;
20713;SDS011;10518;50.742;4.226;2022-11-20T16:48:19;1.23;;;1.13;;
20713;SDS011;10518;50.742;4.226;2022-11-20T16:50:52;5.03;;;0.90;;
20713;SDS011;10518;50.742;4.226;2022-11-20T16:53:18;7.50;;;1.20;;